Terminal Aerodrome Forecast
Issued by NWS

Home | Current Version | Previous Version | Graphics & Text | Print | Product List | Glossary On
Versions: 1 2 3 4 5 6 7 8 9 10 11 12 13 14 15 16
000
FTUS43 KGRB 181100
TAFCWA
TAF
KCWA 181135Z 1812/1912 33009KT P6SM -RA BKN015
     FM181500 33009G15KT P6SM SCT019 BKN030
     FM181900 32007KT P6SM SCT035
     FM190100 VRB03KT P6SM SKC=

USA.gov is the U.S. government's official web portal to all federal, state and local government web resources and services.